Time;durP1;ratioP1;P1;durP2;ratioP2;P2;SDS_P1;SDS_P2;PMS_P1;PMS_P2;Temp;Humidity;BMP_temperature;BMP_pressure;BME280_temperature;BME280_humidity;BME280_pressure;Samples;Min_cycle;Max_cycle;Signal;HPM_P1;HPM_P2
2022/04/18 00:01:09;;;;;;;;;;;7.90;66.50;;;;;;5007111;28;20398;-68
2022/04/18 00:03:35;;;;;;;;;;;7.90;65.30;;;;;;4991504;28;19925;-67
2022/04/18 00:06:01;;;;;;;;;;;7.80;66.30;;;;;;5001833;28;19925;-67
2022/04/18 00:08:26;;;;;;;;;;;7.80;65.80;;;;;;5000147;28;20308;-67
2022/04/18 00:10:52;;;;;;;;;;;7.80;66.50;;;;;;4996857;28;19925;-66
2022/04/18 00:13:17;;;;;;;;;;;8.30;67.70;;;;;;5001321;28;20371;-67
2022/04/18 00:15:43;;;;;;;;;;;7.80;67.00;;;;;;5002525;28;19932;-67
2022/04/18 00:18:08;;;;;;;;;;;8.00;67.30;;;;;;4998497;28;20362;-67
2022/04/18 00:20:34;;;;;;;;;;;7.70;68.30;;;;;;5004245;28;20411;-67
2022/04/18 00:22:59;;;;;;;;;;;7.70;68.10;;;;;;5008267;28;19917;-67
2022/04/18 00:25:25;;;;;;;;;;;7.70;67.90;;;;;;5007751;28;19928;-68
2022/04/18 00:27:51;;;;;;;;;;;7.70;68.20;;;;;;5009671;28;19928;-67
2022/04/18 00:30:16;;;;;;;;;;;7.60;68.20;;;;;;5009560;28;19926;-67
2022/04/18 00:32:42;;;;;;;;;;;7.60;68.50;;;;;;5001854;28;20367;-66
2022/04/18 00:35:07;;;;;;;;;;;7.60;68.70;;;;;;5007239;28;19973;-66
2022/04/18 00:37:36;;;;;;;;;;;7.50;69.30;;;;;;5005433;28;20487;-67
2022/04/18 00:40:02;;;;;;;;;;;7.50;69.80;;;;;;5004933;28;19975;-67
2022/04/18 00:42:28;;;;;;;;;;;7.50;70.00;;;;;;5002661;28;20016;-66
2022/04/18 00:44:54;;;;;;;;;;;7.40;69.90;;;;;;5009390;28;20005;-67
2022/04/18 00:47:19;;;;;;;;;;;7.40;70.10;;;;;;5008775;28;20454;-66
2022/04/18 00:49:45;;;;;;;;;;;7.40;69.80;;;;;;5009297;28;19948;-66
2022/04/18 00:52:11;;;;;;;;;;;7.40;71.00;;;;;;5012244;28;19921;-66
2022/04/18 00:54:36;;;;;;;;;;;8.90;71.60;;;;;;5000528;28;19925;-67
2022/04/18 00:57:02;;;;;;;;;;;7.30;71.30;;;;;;5017415;28;19976;-67
2022/04/18 00:59:30;;;;;;;;;;;7.30;71.10;;;;;;5014484;28;20386;-68
2022/04/18 01:01:56;;;;;;;;;;;7.30;72.10;;;;;;5008637;28;20335;-67
2022/04/18 01:04:21;;;;;;;;;;;7.80;72.90;;;;;;5007412;28;19967;-67
2022/04/18 01:06:47;;;;;;;;;;;7.20;72.70;;;;;;5007191;28;19921;-67
2022/04/18 01:09:13;;;;;;;;;;;7.10;72.60;;;;;;5005215;28;19928;-66
2022/04/18 01:11:38;;;;;;;;;;;7.10;73.50;;;;;;5002218;28;19922;-67
2022/04/18 01:14:04;;;;;;;;;;;7.10;73.70;;;;;;5004807;28;19924;-67
2022/04/18 01:16:29;;;;;;;;;;;7.00;74.20;;;;;;5012182;28;20315;-67
2022/04/18 01:18:57;;;;;;;;;;;7.00;75.80;;;;;;4995815;28;20022;-67
2022/04/18 01:21:22;;;;;;;;;;;7.20;75.80;;;;;;5003116;28;19921;-67
2022/04/18 01:23:48;;;;;;;;;;;6.90;76.10;;;;;;5004873;28;19928;-65
2022/04/18 01:28:58;;;;;;;;;;;8.10;77.00;;;;;;5013168;28;19940;-67
2022/04/18 01:31:25;;;;;;;;;;;7.30;76.30;;;;;;5006471;28;19925;-67
2022/04/18 01:33:50;;;;;;;;;;;6.90;76.80;;;;;;5028968;28;19921;-66
2022/04/18 01:36:16;;;;;;;;;;;6.90;77.30;;;;;;5008696;28;19928;-68
2022/04/18 01:38:41;;;;;;;;;;;6.80;77.90;;;;;;5013590;28;19975;-67
2022/04/18 01:41:07;;;;;;;;;;;6.80;77.30;;;;;;5008894;28;19918;-68
2022/04/18 01:43:33;;;;;;;;;;;6.80;77.20;;;;;;5011223;28;19922;-67
2022/04/18 01:45:58;;;;;;;;;;;6.80;78.00;;;;;;5001971;28;20011;-66
2022/04/18 01:48:24;;;;;;;;;;;6.80;77.70;;;;;;4998508;28;19926;-67
2022/04/18 01:50:49;;;;;;;;;;;6.70;78.60;;;;;;5002956;28;19965;-67
2022/04/18 01:53:15;;;;;;;;;;;6.70;78.50;;;;;;5004521;28;19917;-67
2022/04/18 01:55:40;;;;;;;;;;;6.70;79.30;;;;;;5005169;28;19925;-67
2022/04/18 01:58:06;;;;;;;;;;;6.60;80.00;;;;;;5009815;28;19921;-67
2022/04/18 02:00:32;;;;;;;;;;;6.60;80.50;;;;;;5000407;28;19926;-67
2022/04/18 02:02:58;;;;;;;;;;;6.70;80.80;;;;;;5019160;28;20004;-67
2022/04/18 02:05:23;;;;;;;;;;;6.60;81.30;;;;;;5010172;28;19960;-67
2022/04/18 02:07:49;;;;;;;;;;;6.50;81.20;;;;;;5010024;28;19921;-67
2022/04/18 02:10:14;;;;;;;;;;;6.50;82.60;;;;;;5000685;28;19921;-66
2022/04/18 02:12:40;;;;;;;;;;;6.50;82.30;;;;;;5007779;28;20445;-67
2022/04/18 02:15:06;;;;;;;;;;;6.40;83.00;;;;;;5007027;28;19932;-65
2022/04/18 02:17:32;;;;;;;;;;;6.40;84.00;;;;;;5000957;28;20352;-67
2022/04/18 02:19:57;;;;;;;;;;;6.40;82.90;;;;;;5006641;28;19921;-67
2022/04/18 02:22:23;;;;;;;;;;;6.30;84.50;;;;;;5007473;28;19965;-66
2022/04/18 02:24:49;;;;;;;;;;;6.30;85.00;;;;;;5008640;28;19921;-67
2022/04/18 02:27:16;;;;;;;;;;;8.00;86.40;;;;;;5007998;28;20051;-66
2022/04/18 02:29:42;;;;;;;;;;;6.30;85.90;;;;;;5005422;28;19955;-67
2022/04/18 02:34:52;;;;;;;;;;;6.20;86.40;;;;;;5009368;28;19928;-67
2022/04/18 02:37:18;;;;;;;;;;;6.20;87.20;;;;;;5016079;28;19921;-67
2022/04/18 02:39:43;;;;;;;;;;;6.10;87.70;;;;;;5017462;28;19921;-67
2022/04/18 02:42:09;;;;;;;;;;;6.10;89.10;;;;;;5006267;28;20316;-67
2022/04/18 02:44:35;;;;;;;;;;;6.10;90.00;;;;;;5001694;28;19925;-67
2022/04/18 02:47:00;;;;;;;;;;;6.00;90.00;;;;;;5010226;28;19921;-66
2022/04/18 02:49:26;;;;;;;;;;;6.00;90.30;;;;;;5003446;28;20454;-67
2022/04/18 02:51:51;;;;;;;;;;;6.00;90.30;;;;;;5001873;28;20016;-67
2022/04/18 02:54:17;;;;;;;;;;;6.00;90.40;;;;;;5007921;28;20000;-66
2022/04/18 02:56:43;;;;;;;;;;;6.00;90.70;;;;;;5003958;28;19971;-67
2022/04/18 02:59:08;;;;;;;;;;;6.00;90.70;;;;;;5012138;28;19925;-66
2022/04/18 03:01:34;;;;;;;;;;;7.00;91.00;;;;;;5011171;28;19929;-67
2022/04/18 03:03:59;;;;;;;;;;;6.00;90.70;;;;;;5006545;28;20292;-67
2022/04/18 03:06:25;;;;;;;;;;;6.00;90.00;;;;;;5009408;28;19922;-66
2022/04/18 03:08:50;;;;;;;;;;;7.60;91.10;;;;;;5007221;28;19937;-67
2022/04/18 03:11:16;;;;;;;;;;;6.00;91.00;;;;;;5000207;28;19928;-66
2022/04/18 03:13:44;;;;;;;;;;;5.90;91.30;;;;;;5005914;28;19929;-66
2022/04/18 03:16:11;;;;;;;;;;;5.90;91.90;;;;;;5001259;28;19928;-65
2022/04/18 03:18:36;;;;;;;;;;;5.90;91.80;;;;;;5002635;28;19921;-66
2022/04/18 03:21:03;;;;;;;;;;;5.80;91.60;;;;;;5002327;28;19944;-67
2022/04/18 03:23:28;;;;;;;;;;;5.90;92.40;;;;;;4997986;28;19922;-67
2022/04/18 03:25:54;;;;;;;;;;;5.90;92.40;;;;;;5001138;28;20427;-67
2022/04/18 03:28:20;;;;;;;;;;;5.90;93.10;;;;;;5022222;28;19928;-67
2022/04/18 03:30:46;;;;;;;;;;;5.90;93.00;;;;;;4998961;28;19921;-67
2022/04/18 03:33:11;;;;;;;;;;;5.80;92.40;;;;;;4997529;28;19921;-67
2022/04/18 03:35:37;;;;;;;;;;;5.90;93.10;;;;;;5008895;28;19917;-68
2022/04/18 03:40:47;;;;;;;;;;;6.00;93.50;;;;;;5005242;28;19928;-67
2022/04/18 03:43:12;;;;;;;;;;;5.80;94.00;;;;;;5004528;28;20287;-66
2022/04/18 03:45:38;;;;;;;;;;;5.80;94.10;;;;;;5010469;28;20375;-66
2022/04/18 03:48:04;;;;;;;;;;;5.80;94.70;;;;;;5005421;28;19956;-67
2022/04/18 03:50:29;;;;;;;;;;;5.40;94.80;;;;;;5006475;28;19921;-66
2022/04/18 03:52:55;;;;;;;;;;;5.70;95.20;;;;;;4997418;28;20288;-67
2022/04/18 03:55:20;;;;;;;;;;;5.70;95.40;;;;;;5008081;28;20004;-67
2022/04/18 03:57:46;;;;;;;;;;;5.70;95.70;;;;;;5008827;28;19984;-67
2022/04/18 04:00:12;;;;;;;;;;;7.20;96.40;;;;;;5004360;28;19921;-68
2022/04/18 04:02:38;;;;;;;;;;;5.70;95.30;;;;;;5010129;28;20198;-66
2022/04/18 04:05:04;;;;;;;;;;;5.70;96.70;;;;;;5007494;28;20317;-67
2022/04/18 04:07:30;;;;;;;;;;;5.70;96.50;;;;;;4997381;28;19940;-66
2022/04/18 04:09:56;;;;;;;;;;;5.60;96.40;;;;;;5001096;28;20221;-67
2022/04/18 04:12:25;;;;;;;;;;;5.60;96.20;;;;;;5020617;28;20414;-66
2022/04/18 04:14:54;;;;;;;;;;;5.60;96.50;;;;;;5010051;28;19921;-66
2022/04/18 04:17:23;;;;;;;;;;;5.60;97.10;;;;;;5008596;28;19944;-66
2022/04/18 04:19:49;;;;;;;;;;;5.60;97.10;;;;;;5022342;28;19921;-66
2022/04/18 04:22:14;;;;;;;;;;;5.50;96.60;;;;;;5010363;28;19940;-67
2022/04/18 04:24:40;;;;;;;;;;;5.50;97.20;;;;;;5019405;28;19925;-66
2022/04/18 04:27:05;;;;;;;;;;;5.80;97.20;;;;;;5002195;28;19922;-67
2022/04/18 04:29:31;;;;;;;;;;;5.40;97.80;;;;;;4994145;28;19922;-67
2022/04/18 04:31:57;;;;;;;;;;;5.40;98.50;;;;;;5008046;28;19921;-66
2022/04/18 04:34:23;;;;;;;;;;;5.40;99.20;;;;;;5007319;28;20386;-67
2022/04/18 04:36:48;;;;;;;;;;;5.80;99.60;;;;;;5003880;28;19972;-67
2022/04/18 04:39:14;;;;;;;;;;;5.40;99.70;;;;;;5005262;28;19922;-67
2022/04/18 04:41:42;;;;;;;;;;;5.30;99.90;;;;;;4998329;28;19937;-67
2022/04/18 04:44:08;;;;;;;;;;;5.30;99.90;;;;;;5001711;28;20375;-66
2022/04/18 04:46:34;;;;;;;;;;;6.70;99.90;;;;;;5005154;28;19929;-66
2022/04/18 04:48:59;;;;;;;;;;;5.30;99.90;;;;;;5009980;28;19929;-67
2022/04/18 04:51:25;;;;;;;;;;;5.30;99.90;;;;;;4999962;28;19944;-67
2022/04/18 04:53:50;;;;;;;;;;;5.30;99.90;;;;;;5003330;28;20295;-67
2022/04/18 04:56:17;;;;;;;;;;;5.60;99.90;;;;;;4998948;28;19921;-67
2022/04/18 04:58:43;;;;;;;;;;;5.60;99.90;;;;;;5017923;28;19952;-66
2022/04/18 05:01:08;;;;;;;;;;;5.40;99.90;;;;;;5003527;28;19922;-67
2022/04/18 05:03:34;;;;;;;;;;;5.40;99.90;;;;;;5000909;28;19928;-66
2022/04/18 05:05:59;;;;;;;;;;;5.40;99.90;;;;;;4997046;28;19984;-67
2022/04/18 05:08:25;;;;;;;;;;;5.50;99.90;;;;;;5008780;28;20290;-66
2022/04/18 05:10:54;;;;;;;;;;;5.50;99.90;;;;;;4999799;28;20371;-67
2022/04/18 05:13:20;;;;;;;;;;;5.60;99.90;;;;;;5013266;28;20075;-67
2022/04/18 05:15:46;;;;;;;;;;;5.60;99.90;;;;;;5009262;28;20245;-67
2022/04/18 05:18:12;;;;;;;;;;;5.80;99.90;;;;;;5009281;28;19928;-66
2022/04/18 05:20:38;;;;;;;;;;;5.70;99.90;;;;;;5002228;28;20056;-68
2022/04/18 05:23:03;;;;;;;;;;;5.80;99.90;;;;;;5010627;28;19922;-67
2022/04/18 05:25:30;;;;;;;;;;;5.80;99.90;;;;;;5011497;28;19921;-67
2022/04/18 05:27:55;;;;;;;;;;;5.90;99.90;;;;;;5009255;28;20324;-67
2022/04/18 05:30:21;;;;;;;;;;;6.00;99.90;;;;;;5010981;28;19936;-66
2022/04/18 05:32:46;;;;;;;;;;;6.00;99.90;;;;;;5007690;28;19922;-66
2022/04/18 05:35:12;;;;;;;;;;;6.10;99.70;;;;;;5007823;28;19921;-67
2022/04/18 05:37:37;;;;;;;;;;;6.10;99.90;;;;;;5001364;28;19922;-67
2022/04/18 05:40:04;;;;;;;;;;;6.20;99.90;;;;;;5006472;28;19932;-67
2022/04/18 05:42:29;;;;;;;;;;;6.40;99.90;;;;;;4997183;28;20068;-67
2022/04/18 05:44:55;;;;;;;;;;;6.70;99.50;;;;;;5007785;28;20053;-67
2022/04/18 05:47:20;;;;;;;;;;;6.80;99.40;;;;;;5020555;28;19929;-67
2022/04/18 05:49:46;;;;;;;;;;;6.90;99.10;;;;;;5011893;28;19937;-66
2022/04/18 05:52:14;;;;;;;;;;;7.00;99.20;;;;;;5001671;28;20016;-67
2022/04/18 05:54:39;;;;;;;;;;;7.00;99.10;;;;;;5003362;28;20400;-67
2022/04/18 05:57:08;;;;;;;;;;;7.10;98.80;;;;;;5008869;28;19972;-67
2022/04/18 05:59:34;;;;;;;;;;;7.20;98.50;;;;;;5008452;28;19922;-67
2022/04/18 06:02:00;;;;;;;;;;;7.30;98.20;;;;;;5004652;28;20275;-66
2022/04/18 06:04:25;;;;;;;;;;;7.50;98.20;;;;;;5002366;28;19948;-66
2022/04/18 06:06:51;;;;;;;;;;;7.50;97.90;;;;;;4999748;28;19928;-66
2022/04/18 06:09:16;;;;;;;;;;;7.70;97.60;;;;;;5008732;28;19921;-67
2022/04/18 06:11:42;;;;;;;;;;;7.90;97.90;;;;;;5009859;28;19921;-67
2022/04/18 06:14:08;;;;;;;;;;;8.20;97.30;;;;;;5004738;28;19925;-67
2022/04/18 06:16:33;;;;;;;;;;;8.60;97.00;;;;;;5010672;28;19992;-68
2022/04/18 06:18:59;;;;;;;;;;;9.30;96.30;;;;;;5012720;28;20013;-68
2022/04/18 06:21:24;;;;;;;;;;;9.80;95.10;;;;;;5004766;28;20332;-66
2022/04/18 06:23:50;;;;;;;;;;;10.60;94.20;;;;;;5011045;28;20368;-66
2022/04/18 06:26:15;;;;;;;;;;;12.20;93.40;;;;;;5010226;28;20300;-68
2022/04/18 06:28:41;;;;;;;;;;;11.10;91.50;;;;;;5005742;28;19968;-68
2022/04/18 06:31:07;;;;;;;;;;;11.30;90.90;;;;;;5001873;28;20402;-67
2022/04/18 06:33:34;;;;;;;;;;;11.60;90.50;;;;;;5001244;28;20013;-68
2022/04/18 06:36:01;;;;;;;;;;;11.70;89.00;;;;;;5011208;28;19975;-68
2022/04/18 06:38:26;;;;;;;;;;;11.90;87.90;;;;;;5014311;28;19934;-67
2022/04/18 06:40:52;;;;;;;;;;;11.80;87.30;;;;;;5006274;28;20473;-66
2022/04/18 06:43:20;;;;;;;;;;;11.50;87.00;;;;;;5004202;28;20004;-68
2022/04/18 06:45:46;;;;;;;;;;;11.30;87.90;;;;;;5009250;28;19928;-66
2022/04/18 06:48:11;;;;;;;;;;;11.30;87.90;;;;;;5009939;28;19922;-65
2022/04/18 06:50:37;;;;;;;;;;;11.60;88.10;;;;;;5004739;28;19922;-68
2022/04/18 06:53:02;;;;;;;;;;;12.00;87.30;;;;;;5011887;28;19996;-66
2022/04/18 06:56:58;;;;;;;;;;;12.40;86.20;;;;;;5002062;28;19960;-67
2022/04/18 06:58:14;;;;;;;;;;;12.80;84.90;;;;;;5005242;28;20257;-67
2022/04/18 07:00:39;;;;;;;;;;;12.80;83.70;;;;;;5013387;28;19975;-67
2022/04/18 07:03:05;;;;;;;;;;;12.80;82.60;;;;;;5011782;28;19921;-67
2022/04/18 07:05:30;;;;;;;;;;;12.70;82.80;;;;;;5013694;28;19931;-68
2022/04/18 07:07:56;;;;;;;;;;;12.80;82.60;;;;;;5012018;28;19921;-68
2022/04/18 07:10:21;;;;;;;;;;;12.50;83.70;;;;;;4999573;28;19941;-67
2022/04/18 07:12:47;;;;;;;;;;;12.50;82.70;;;;;;5017203;28;19949;-68
2022/04/18 07:15:12;;;;;;;;;;;12.10;82.90;;;;;;4993160;28;19925;-66
2022/04/18 07:17:38;;;;;;;;;;;12.00;83.30;;;;;;5001891;28;20279;-67
2022/04/18 07:20:04;;;;;;;;;;;12.00;84.30;;;;;;5013824;28;19925;-67
2022/04/18 07:22:36;;;;;;;;;;;12.00;84.20;;;;;;5001028;28;19929;-67
2022/04/18 07:25:05;;;;;;;;;;;12.10;85.00;;;;;;5022051;28;19926;-68
2022/04/18 07:27:31;;;;;;;;;;;12.10;84.90;;;;;;4999494;28;19929;-71
2022/04/18 07:29:56;;;;;;;;;;;12.20;84.70;;;;;;5010366;28;19921;-67
2022/04/18 07:32:22;;;;;;;;;;;12.20;84.60;;;;;;5016221;28;20303;-68
2022/04/18 07:34:48;;;;;;;;;;;12.30;85.50;;;;;;4996965;28;19921;-67
2022/04/18 07:37:13;;;;;;;;;;;12.40;85.00;;;;;;5006749;28;19964;-67
2022/04/18 07:39:39;;;;;;;;;;;12.50;84.60;;;;;;5010194;28;19998;-67
2022/04/18 07:42:04;;;;;;;;;;;12.60;85.00;;;;;;4998849;28;19929;-67
2022/04/18 07:44:30;;;;;;;;;;;12.70;83.80;;;;;;5005305;28;19968;-67
2022/04/18 07:46:55;;;;;;;;;;;12.80;83.20;;;;;;5002577;28;19921;-68
2022/04/18 07:49:21;;;;;;;;;;;12.90;83.70;;;;;;5003350;28;20331;-67
2022/04/18 07:51:47;;;;;;;;;;;13.10;83.70;;;;;;5018530;28;20315;-68
2022/04/18 07:54:14;;;;;;;;;;;13.10;83.30;;;;;;5003541;28;19925;-67
2022/04/18 07:56:40;;;;;;;;;;;13.20;83.40;;;;;;4997222;28;19957;-67
2022/04/18 07:59:06;;;;;;;;;;;13.30;83.30;;;;;;4994128;28;19972;-67
2022/04/18 08:01:32;;;;;;;;;;;13.50;82.20;;;;;;4997751;28;19921;-68
2022/04/18 08:04:00;;;;;;;;;;;13.70;82.20;;;;;;5015854;28;19948;-67
2022/04/18 08:06:25;;;;;;;;;;;13.80;81.40;;;;;;5005428;28;19929;-68
2022/04/18 08:08:51;;;;;;;;;;;13.90;80.90;;;;;;5000356;28;19936;-68
2022/04/18 08:11:17;;;;;;;;;;;14.00;79.10;;;;;;5003234;28;19922;-66
2022/04/18 08:13:46;;;;;;;;;;;14.10;79.40;;;;;;5000142;28;19992;-68
2022/04/18 08:16:12;;;;;;;;;;;14.20;77.70;;;;;;5000848;28;19922;-67
2022/04/18 08:18:39;;;;;;;;;;;14.20;78.40;;;;;;5003088;28;19930;-67
2022/04/18 08:21:06;;;;;;;;;;;14.80;77.60;;;;;;4999395;28;20291;-68
2022/04/18 08:23:32;;;;;;;;;;;14.40;76.80;;;;;;5000850;28;20327;-69
2022/04/18 08:25:59;;;;;;;;;;;14.50;76.30;;;;;;5010665;28;19929;-67
2022/04/18 08:28:25;;;;;;;;;;;14.70;77.20;;;;;;5003499;28;20004;-68
2022/04/18 08:30:51;;;;;;;;;;;14.70;75.90;;;;;;5007113;28;19928;-66
2022/04/18 08:33:17;;;;;;;;;;;14.80;75.40;;;;;;5011523;28;19921;-68
2022/04/18 08:35:42;;;;;;;;;;;14.80;75.60;;;;;;5012348;28;20287;-67
2022/04/18 08:38:08;;;;;;;;;;;14.90;74.60;;;;;;4996046;28;19925;-68
2022/04/18 08:40:34;;;;;;;;;;;15.10;78.80;;;;;;5010482;28;19925;-67
2022/04/18 08:42:59;;;;;;;;;;;15.10;74.30;;;;;;5007570;28;20336;-66
2022/04/18 08:45:29;;;;;;;;;;;15.30;73.80;;;;;;4996590;28;19929;-67
2022/04/18 08:53:28;;;;;;;;;;;15.70;72.30;;;;;;5015562;28;19925;-68
2022/04/18 08:55:54;;;;;;;;;;;15.90;74.60;;;;;;5010449;28;19921;-67
2022/04/18 08:58:21;;;;;;;;;;;16.20;72.60;;;;;;5005911;28;19921;-67
2022/04/18 09:00:46;;;;;;;;;;;16.40;71.80;;;;;;4998985;28;20269;-67
2022/04/18 09:03:12;;;;;;;;;;;16.50;70.50;;;;;;5010336;28;19944;-67
2022/04/18 09:05:38;;;;;;;;;;;16.70;71.10;;;;;;5007387;28;19925;-68
2022/04/18 09:08:05;;;;;;;;;;;16.70;69.70;;;;;;5004784;28;20359;-67
2022/04/18 09:10:31;;;;;;;;;;;16.80;71.20;;;;;;5013406;28;19921;-70
2022/04/18 09:13:02;;;;;;;;;;;16.90;69.80;;;;;;5006211;28;19922;-69
2022/04/18 09:15:34;;;;;;;;;;;17.00;69.50;;;;;;5004617;28;19933;-69
2022/04/18 09:18:06;;;;;;;;;;;17.10;68.10;;;;;;5012947;28;20039;-68
2022/04/18 09:20:39;;;;;;;;;;;17.30;68.70;;;;;;5009893;28;19921;-67
2022/04/18 09:23:22;;;;;;;;;;;17.50;71.10;;;;;;5005478;28;19922;-67
2022/04/18 09:25:58;;;;;;;;;;;17.50;67.50;;;;;;5000697;28;20481;-67
2022/04/18 09:28:26;;;;;;;;;;;17.70;66.90;;;;;;5019514;28;20072;-67
2022/04/18 09:30:55;;;;;;;;;;;17.70;65.70;;;;;;5006268;28;19957;-67
2022/04/18 09:33:21;;;;;;;;;;;17.80;67.60;;;;;;4999502;28;19921;-67
2022/04/18 09:35:47;;;;;;;;;;;18.00;68.00;;;;;;5010220;28;20222;-67
2022/04/18 09:38:16;;;;;;;;;;;18.20;66.60;;;;;;5013493;28;20394;-67
2022/04/18 09:40:41;;;;;;;;;;;18.20;64.50;;;;;;5008992;28;20027;-67
2022/04/18 09:43:07;;;;;;;;;;;18.20;64.50;;;;;;5012515;28;20482;-67
2022/04/18 09:45:33;;;;;;;;;;;18.40;65.10;;;;;;4998896;28;19928;-68
2022/04/18 09:48:02;;;;;;;;;;;18.40;63.60;;;;;;5002275;28;19960;-67
2022/04/18 09:53:24;;;;;;;;;;;18.90;63.90;;;;;;5005266;28;20281;-67
2022/04/18 09:55:51;;;;;;;;;;;19.10;64.30;;;;;;5010577;28;20025;-67
2022/04/18 09:58:16;;;;;;;;;;;19.20;61.10;;;;;;4995989;28;20490;-67
2022/04/18 10:00:45;;;;;;;;;;;19.40;61.90;;;;;;5005088;28;20020;-69
2022/04/18 10:03:10;;;;;;;;;;;19.60;62.00;;;;;;5013017;28;19921;-67
2022/04/18 10:05:36;;;;;;;;;;;19.80;60.50;;;;;;5012981;28;19991;-67
2022/04/18 10:08:04;;;;;;;;;;;20.00;60.50;;;;;;5029782;28;19929;-68
2022/04/18 10:10:33;;;;;;;;;;;20.00;59.60;;;;;;5029620;28;19921;-68
2022/04/18 10:12:58;;;;;;;;;;;20.10;59.70;;;;;;5014408;28;19928;-67
2022/04/18 10:15:26;;;;;;;;;;;20.20;58.60;;;;;;5000318;28;19976;-67
2022/04/18 10:17:54;;;;;;;;;;;20.20;57.20;;;;;;5012322;28;19921;-71
2022/04/18 10:20:34;;;;;;;;;;;20.30;59.10;;;;;;5005781;28;19928;-68
2022/04/18 10:22:59;;;;;;;;;;;20.50;57.40;;;;;;5000841;28;19944;-68
2022/04/18 10:25:43;;;;;;;;;;;20.70;57.70;;;;;;5009507;28;19921;-69
2022/04/18 10:28:14;;;;;;;;;;;21.20;58.40;;;;;;4995742;28;19921;-67
2022/04/18 10:30:43;;;;;;;;;;;21.50;56.80;;;;;;5010100;28;19921;-67
2022/04/18 10:33:12;;;;;;;;;;;21.60;53.50;;;;;;5016877;28;19928;-67
2022/04/18 10:35:45;;;;;;;;;;;21.60;54.60;;;;;;5013426;28;20367;-67
2022/04/18 10:38:11;;;;;;;;;;;21.70;54.00;;;;;;4999061;28;19987;-67
2022/04/18 10:40:40;;;;;;;;;;;21.80;54.40;;;;;;5008383;28;19972;-66
2022/04/18 10:43:11;;;;;;;;;;;21.80;51.80;;;;;;5004271;28;19921;-67
2022/04/18 10:45:39;;;;;;;;;;;21.90;51.00;;;;;;5013478;28;19971;-68
2022/04/18 10:48:08;;;;;;;;;;;21.90;51.60;;;;;;5014367;28;19968;-68
2022/04/18 10:50:38;;;;;;;;;;;22.30;49.60;;;;;;5012660;28;19921;-70
2022/04/18 10:53:10;;;;;;;;;;;22.40;47.70;;;;;;5014040;28;19925;-67
2022/04/18 10:55:37;;;;;;;;;;;22.60;48.10;;;;;;5012831;28;19922;-67
2022/04/18 10:58:13;;;;;;;;;;;22.60;47.10;;;;;;5014069;28;19976;-68
2022/04/18 11:00:49;;;;;;;;;;;22.70;45.10;;;;;;5005914;28;19924;-67
2022/04/18 11:03:35;;;;;;;;;;;22.90;46.30;;;;;;4994436;28;19922;-67
2022/04/18 11:06:01;;;;;;;;;;;23.10;47.20;;;;;;4994324;28;20009;-67
2022/04/18 11:08:28;;;;;;;;;;;23.30;43.30;;;;;;4998426;28;19926;-67
2022/04/18 11:11:02;;;;;;;;;;;23.60;43.60;;;;;;5013949;28;20004;-67
2022/04/18 11:13:30;;;;;;;;;;;24.00;44.10;;;;;;5011321;28;19921;-67
2022/04/18 11:16:02;;;;;;;;;;;24.00;43.20;;;;;;5012945;28;19921;-67
2022/04/18 11:18:33;;;;;;;;;;;24.00;40.60;;;;;;5028879;28;20401;-68
2022/04/18 11:20:58;;;;;;;;;;;23.80;40.60;;;;;;5013292;28;20338;-68
2022/04/18 11:23:27;;;;;;;;;;;23.60;41.40;;;;;;5012371;28;19925;-67
2022/04/18 11:26:03;;;;;;;;;;;23.40;41.50;;;;;;5013123;28;19921;-69
2022/04/18 11:28:31;;;;;;;;;;;23.50;41.60;;;;;;5002034;28;20371;-67
2022/04/18 11:30:57;;;;;;;;;;;23.60;41.30;;;;;;5011858;28;19921;-67
2022/04/18 11:33:22;;;;;;;;;;;23.60;42.40;;;;;;5013090;28;19921;-67
2022/04/18 11:35:48;;;;;;;;;;;24.00;41.40;;;;;;5013097;28;20020;-68
2022/04/18 11:38:14;;;;;;;;;;;24.20;41.20;;;;;;5012848;28;19921;-66
2022/04/18 11:40:40;;;;;;;;;;;24.50;40.30;;;;;;5012574;28;19964;-67
2022/04/18 11:43:15;;;;;;;;;;;24.80;41.60;;;;;;5013141;28;20342;-67
2022/04/18 11:45:41;;;;;;;;;;;24.70;40.20;;;;;;5007991;28;20272;-66
2022/04/18 11:48:07;;;;;;;;;;;24.80;39.60;;;;;;5011919;28;19921;-68
2022/04/18 11:50:36;;;;;;;;;;;24.80;40.20;;;;;;5012802;28;20376;-68
2022/04/18 11:53:06;;;;;;;;;;;24.80;40.40;;;;;;5013669;28;19921;-69
2022/04/18 11:55:39;;;;;;;;;;;25.10;40.60;;;;;;5012417;28;19930;-68
2022/04/18 11:58:07;;;;;;;;;;;25.30;42.60;;;;;;5013260;28;19928;-68
2022/04/18 12:08:47;;;;;;;;;;;25.30;38.90;;;;;;4998641;28;19922;-68
2022/04/18 12:11:13;;;;;;;;;;;25.00;38.60;;;;;;5006044;28;19929;-67
2022/04/18 12:13:39;;;;;;;;;;;25.20;40.40;;;;;;5007529;28;19931;-68
2022/04/18 12:16:05;;;;;;;;;;;25.20;37.60;;;;;;5001277;28;19965;-68
2022/04/18 12:18:30;;;;;;;;;;;25.30;39.50;;;;;;5001378;28;20371;-68
2022/04/18 12:20:58;;;;;;;;;;;25.50;39.50;;;;;;4999268;28;19926;-67
2022/04/18 12:23:24;;;;;;;;;;;25.90;38.60;;;;;;5002369;28;19976;-68
2022/04/18 12:25:54;;;;;;;;;;;25.60;37.50;;;;;;5013521;28;19945;-68
2022/04/18 12:28:20;;;;;;;;;;;25.50;38.70;;;;;;5012958;28;20426;-67
2022/04/18 12:30:49;;;;;;;;;;;25.70;38.40;;;;;;5005261;28;19926;-67
2022/04/18 12:33:21;;;;;;;;;;;25.90;38.70;;;;;;5002265;28;19925;-69
2022/04/18 12:35:48;;;;;;;;;;;26.00;37.90;;;;;;4999970;28;20649;-68
2022/04/18 12:38:15;;;;;;;;;;;26.00;37.70;;;;;;5012052;28;19987;-67
2022/04/18 12:40:42;;;;;;;;;;;26.00;37.30;;;;;;5008266;28;19929;-67
2022/04/18 12:43:08;;;;;;;;;;;26.00;37.60;;;;;;4991986;28;20012;-67
2022/04/18 12:45:41;;;;;;;;;;;26.40;37.90;;;;;;4998366;28;20485;-69
2022/04/18 12:48:07;;;;;;;;;;;26.70;37.00;;;;;;4994655;28;19948;-68
2022/04/18 12:50:34;;;;;;;;;;;26.70;37.10;;;;;;5024923;28;20383;-68
2022/04/18 12:52:59;;;;;;;;;;;26.40;35.50;;;;;;5011743;28;20399;-68
2022/04/18 12:55:30;;;;;;;;;;;26.30;36.00;;;;;;5011807;28;19925;-68
2022/04/18 12:57:59;;;;;;;;;;;26.30;35.80;;;;;;5006389;28;20024;-69
2022/04/18 13:00:33;;;;;;;;;;;26.40;36.30;;;;;;5005100;28;20028;-68
2022/04/18 13:03:03;;;;;;;;;;;26.30;35.40;;;;;;5012138;28;20375;-69
2022/04/18 13:05:30;;;;;;;;;;;26.30;36.40;;;;;;5013089;28;19971;-67
2022/04/18 13:07:56;;;;;;;;;;;26.40;35.70;;;;;;5011748;28;20385;-68
2022/04/18 13:10:25;;;;;;;;;;;26.70;35.80;;;;;;5005133;28;19925;-68
2022/04/18 13:12:58;;;;;;;;;;;26.80;35.90;;;;;;5012025;28;19931;-67
2022/04/18 13:15:26;;;;;;;;;;;26.60;36.10;;;;;;5010524;28;19937;-68
2022/04/18 13:18:01;;;;;;;;;;;26.70;35.50;;;;;;5012018;28;20399;-67
2022/04/18 13:20:27;;;;;;;;;;;26.70;35.40;;;;;;5009888;28;19932;-68
2022/04/18 13:22:53;;;;;;;;;;;26.80;35.80;;;;;;5012165;28;19926;-68
2022/04/18 13:25:18;;;;;;;;;;;26.70;34.20;;;;;;5012352;28;19980;-69
2022/04/18 13:27:45;;;;;;;;;;;27.10;34.70;;;;;;5012242;28;19932;-68
2022/04/18 13:30:11;;;;;;;;;;;27.20;35.30;;;;;;5007551;28;19926;-69
2022/04/18 13:32:36;;;;;;;;;;;27.40;35.80;;;;;;4992836;28;19949;-68
2022/04/18 13:35:02;;;;;;;;;;;27.70;35.70;;;;;;5010727;28;20310;-68
2022/04/18 13:37:29;;;;;;;;;;;27.70;34.80;;;;;;5023394;28;19933;-68
2022/04/18 13:39:54;;;;;;;;;;;27.40;34.60;;;;;;5002451;28;19947;-67
2022/04/18 13:42:20;;;;;;;;;;;27.60;35.00;;;;;;4992730;28;20391;-68
2022/04/18 13:44:45;;;;;;;;;;;27.50;34.80;;;;;;5002556;28;19948;-68
2022/04/18 13:47:12;;;;;;;;;;;26.90;34.10;;;;;;5010617;28;20319;-68
2022/04/18 13:49:38;;;;;;;;;;;26.40;34.90;;;;;;5010244;28;19987;-68
2022/04/18 13:52:08;;;;;;;;;;;26.10;36.00;;;;;;5009381;28;20311;-68
2022/04/18 13:54:43;;;;;;;;;;;26.40;35.70;;;;;;4991185;28;19926;-68
2022/04/18 13:57:09;;;;;;;;;;;26.80;34.50;;;;;;4992448;28;19983;-69
2022/04/18 13:59:34;;;;;;;;;;;27.10;34.20;;;;;;4992159;28;19977;-69
2022/04/18 14:02:00;;;;;;;;;;;27.30;34.50;;;;;;5000872;28;19925;-68
2022/04/18 14:04:26;;;;;;;;;;;27.40;33.60;;;;;;5009777;28;20008;-68
2022/04/18 14:06:52;;;;;;;;;;;27.50;34.30;;;;;;5009744;28;20443;-68
2022/04/18 14:09:18;;;;;;;;;;;27.50;33.60;;;;;;5009335;28;19929;-66
2022/04/18 14:11:43;;;;;;;;;;;27.40;32.90;;;;;;5006581;28;20029;-68
2022/04/18 14:14:09;;;;;;;;;;;27.20;33.50;;;;;;4993030;28;20024;-68
2022/04/18 14:22:03;;;;;;;;;;;24.20;35.80;;;;;;5006823;28;19925;-68
2022/04/18 14:24:29;;;;;;;;;;;23.40;37.50;;;;;;5011168;28;19925;-67
2022/04/18 14:26:54;;;;;;;;;;;22.70;38.10;;;;;;5011340;28;20079;-67
2022/04/18 14:29:20;;;;;;;;;;;22.20;38.20;;;;;;5010807;28;20357;-68
2022/04/18 14:31:46;;;;;;;;;;;21.90;39.40;;;;;;5000650;28;19926;-68
2022/04/18 14:34:11;;;;;;;;;;;21.50;39.40;;;;;;5008564;28;19925;-67
2022/04/18 14:36:37;;;;;;;;;;;21.40;38.10;;;;;;5011315;28;20367;-71
2022/04/18 14:39:03;;;;;;;;;;;21.20;38.20;;;;;;5010101;28;19980;-68
2022/04/18 14:41:29;;;;;;;;;;;20.90;39.60;;;;;;5009465;28;19925;-68
2022/04/18 14:43:55;;;;;;;;;;;20.50;39.90;;;;;;5008826;28;19947;-68
2022/04/18 14:46:20;;;;;;;;;;;20.30;40.40;;;;;;5007924;28;20410;-68
2022/04/18 14:48:46;;;;;;;;;;;20.10;41.10;;;;;;5024693;28;19925;-67
2022/04/18 14:51:11;;;;;;;;;;;20.00;42.30;;;;;;5010718;28;19925;-68